sensor_id;sensor_type;location;lat;lon;timestamp;temperature;humidity
17795;DHT22;9021;50.882;4.326;2022-09-27T00:01:03;12.20;99.90
17795;DHT22;9021;50.882;4.326;2022-09-27T00:03:29;12.20;99.90
17795;DHT22;9021;50.882;4.326;2022-09-27T00:06:07;12.30;99.90
17795;DHT22;9021;50.882;4.326;2022-09-27T00:08:33;12.40;99.90
17795;DHT22;9021;50.882;4.326;2022-09-27T00:11:00;12.40;99.90
17795;DHT22;9021;50.882;4.326;2022-09-27T00:13:26;12.40;99.90
17795;DHT22;9021;50.882;4.326;2022-09-27T00:15:59;12.30;99.90
17795;DHT22;9021;50.882;4.326;2022-09-27T00:18:25;12.30;99.90
17795;DHT22;9021;50.882;4.326;2022-09-27T00:20:51;12.40;99.90
17795;DHT22;9021;50.882;4.326;2022-09-27T00:23:17;12.30;99.90
17795;DHT22;9021;50.882;4.326;2022-09-27T00:25:57;12.40;99.90
17795;DHT22;9021;50.882;4.326;2022-09-27T00:28:23;12.40;99.90
17795;DHT22;9021;50.882;4.326;2022-09-27T00:30:49;12.50;99.90
17795;DHT22;9021;50.882;4.326;2022-09-27T00:33:15;12.40;99.90
17795;DHT22;9021;50.882;4.326;2022-09-27T00:35:40;12.30;99.90
17795;DHT22;9021;50.882;4.326;2022-09-27T00:38:06;12.30;99.90
17795;DHT22;9021;50.882;4.326;2022-09-27T00:40:32;12.20;99.90
17795;DHT22;9021;50.882;4.326;2022-09-27T00:42:57;12.20;99.90
17795;DHT22;9021;50.882;4.326;2022-09-27T00:45:23;12.20;99.90
17795;DHT22;9021;50.882;4.326;2022-09-27T00:48:09;12.20;99.90
17795;DHT22;9021;50.882;4.326;2022-09-27T00:50:40;12.20;99.90
17795;DHT22;9021;50.882;4.326;2022-09-27T00:53:36;12.20;99.90
17795;DHT22;9021;50.882;4.326;2022-09-27T00:56:17;12.20;99.90
17795;DHT22;9021;50.882;4.326;2022-09-27T00:58:49;12.20;99.90
17795;DHT22;9021;50.882;4.326;2022-09-27T01:01:16;12.10;99.90
17795;DHT22;9021;50.882;4.326;2022-09-27T01:04:08;12.20;99.90
17795;DHT22;9021;50.882;4.326;2022-09-27T01:06:34;12.20;99.90
17795;DHT22;9021;50.882;4.326;2022-09-27T01:09:03;12.30;99.90
17795;DHT22;9021;50.882;4.326;2022-09-27T01:17:35;12.20;99.90
17795;DHT22;9021;50.882;4.326;2022-09-27T01:31:54;12.10;99.90
17795;DHT22;9021;50.882;4.326;2022-09-27T01:44:37;11.90;99.90
17795;DHT22;9021;50.882;4.326;2022-09-27T01:47:09;12.10;99.90
17795;DHT22;9021;50.882;4.326;2022-09-27T01:49:52;12.00;99.90
17795;DHT22;9021;50.882;4.326;2022-09-27T01:52:24;12.00;99.90
17795;DHT22;9021;50.882;4.326;2022-09-27T01:54:55;12.00;99.90
17795;DHT22;9021;50.882;4.326;2022-09-27T01:57:25;12.00;99.90
17795;DHT22;9021;50.882;4.326;2022-09-27T01:59:58;12.00;99.90
17795;DHT22;9021;50.882;4.326;2022-09-27T02:02:27;12.00;99.90
17795;DHT22;9021;50.882;4.326;2022-09-27T02:04:56;12.10;99.90
17795;DHT22;9021;50.882;4.326;2022-09-27T02:07:33;12.10;99.90
17795;DHT22;9021;50.882;4.326;2022-09-27T02:10:05;12.20;99.90
17795;DHT22;9021;50.882;4.326;2022-09-27T02:12:39;12.20;99.90
17795;DHT22;9021;50.882;4.326;2022-09-27T02:15:10;12.20;99.90
17795;DHT22;9021;50.882;4.326;2022-09-27T02:17:55;12.20;99.90
17795;DHT22;9021;50.882;4.326;2022-09-27T02:20:30;12.20;99.90
17795;DHT22;9021;50.882;4.326;2022-09-27T02:23:14;12.10;99.90
17795;DHT22;9021;50.882;4.326;2022-09-27T02:25:50;12.00;99.90
17795;DHT22;9021;50.882;4.326;2022-09-27T02:30:51;12.00;99.90
17795;DHT22;9021;50.882;4.326;2022-09-27T02:33:21;11.90;99.90
17795;DHT22;9021;50.882;4.326;2022-09-27T02:35:48;11.80;99.90
17795;DHT22;9021;50.882;4.326;2022-09-27T02:38:14;11.70;99.90
17795;DHT22;9021;50.882;4.326;2022-09-27T02:40:43;11.60;99.90
17795;DHT22;9021;50.882;4.326;2022-09-27T02:43:09;11.60;99.90
17795;DHT22;9021;50.882;4.326;2022-09-27T02:48:21;11.60;99.90
17795;DHT22;9021;50.882;4.326;2022-09-27T02:59:27;11.80;99.90
17795;DHT22;9021;50.882;4.326;2022-09-27T03:04:29;11.80;99.90
17795;DHT22;9021;50.882;4.326;2022-09-27T03:06:59;11.90;99.90
17795;DHT22;9021;50.882;4.326;2022-09-27T03:09:29;11.80;99.90
17795;DHT22;9021;50.882;4.326;2022-09-27T03:12:04;11.90;99.90
17795;DHT22;9021;50.882;4.326;2022-09-27T03:14:29;12.00;99.90
17795;DHT22;9021;50.882;4.326;2022-09-27T03:16:55;11.90;99.90
17795;DHT22;9021;50.882;4.326;2022-09-27T03:19:20;11.90;99.90
17795;DHT22;9021;50.882;4.326;2022-09-27T03:21:46;11.80;99.90
17795;DHT22;9021;50.882;4.326;2022-09-27T03:24:12;11.80;99.90
17795;DHT22;9021;50.882;4.326;2022-09-27T03:26:37;11.80;99.90
17795;DHT22;9021;50.882;4.326;2022-09-27T03:29:03;11.80;99.90
17795;DHT22;9021;50.882;4.326;2022-09-27T03:31:28;11.80;99.90
17795;DHT22;9021;50.882;4.326;2022-09-27T03:33:54;11.80;99.90
17795;DHT22;9021;50.882;4.326;2022-09-27T03:36:20;11.80;99.90
17795;DHT22;9021;50.882;4.326;2022-09-27T03:38:46;11.70;99.90
17795;DHT22;9021;50.882;4.326;2022-09-27T03:41:11;11.70;99.90
17795;DHT22;9021;50.882;4.326;2022-09-27T03:43:37;11.90;99.90
17795;DHT22;9021;50.882;4.326;2022-09-27T03:46:03;11.70;99.90
17795;DHT22;9021;50.882;4.326;2022-09-27T03:48:29;11.70;99.90
17795;DHT22;9021;50.882;4.326;2022-09-27T03:50:55;11.60;99.90
17795;DHT22;9021;50.882;4.326;2022-09-27T03:53:21;11.60;99.90
17795;DHT22;9021;50.882;4.326;2022-09-27T03:55:47;11.60;99.90
17795;DHT22;9021;50.882;4.326;2022-09-27T03:58:13;11.60;99.90
17795;DHT22;9021;50.882;4.326;2022-09-27T04:00:39;11.60;99.90
17795;DHT22;9021;50.882;4.326;2022-09-27T04:03:05;11.60;99.90
17795;DHT22;9021;50.882;4.326;2022-09-27T04:05:31;11.70;99.90
17795;DHT22;9021;50.882;4.326;2022-09-27T04:07:57;11.80;99.90
17795;DHT22;9021;50.882;4.326;2022-09-27T04:10:23;11.80;99.90
17795;DHT22;9021;50.882;4.326;2022-09-27T04:12:49;11.70;99.90
17795;DHT22;9021;50.882;4.326;2022-09-27T04:15:15;11.60;99.90
17795;DHT22;9021;50.882;4.326;2022-09-27T04:17:41;11.50;99.90
17795;DHT22;9021;50.882;4.326;2022-09-27T04:20:08;11.50;99.90
17795;DHT22;9021;50.882;4.326;2022-09-27T04:22:33;11.60;99.90
17795;DHT22;9021;50.882;4.326;2022-09-27T04:24:59;11.40;99.90
17795;DHT22;9021;50.882;4.326;2022-09-27T04:27:25;11.50;99.90
17795;DHT22;9021;50.882;4.326;2022-09-27T04:29:50;11.50;99.90
17795;DHT22;9021;50.882;4.326;2022-09-27T04:32:16;11.60;99.90
17795;DHT22;9021;50.882;4.326;2022-09-27T04:34:42;11.50;99.90
17795;DHT22;9021;50.882;4.326;2022-09-27T04:37:26;11.50;99.90
17795;DHT22;9021;50.882;4.326;2022-09-27T04:39:52;11.30;99.90
17795;DHT22;9021;50.882;4.326;2022-09-27T04:42:18;11.50;99.90
17795;DHT22;9021;50.882;4.326;2022-09-27T04:44:43;11.50;99.90
17795;DHT22;9021;50.882;4.326;2022-09-27T04:47:09;11.50;99.90
17795;DHT22;9021;50.882;4.326;2022-09-27T04:49:35;11.50;99.90
17795;DHT22;9021;50.882;4.326;2022-09-27T04:52:01;11.60;99.90
17795;DHT22;9021;50.882;4.326;2022-09-27T04:54:27;11.60;99.90
17795;DHT22;9021;50.882;4.326;2022-09-27T04:56:53;11.60;99.90
17795;DHT22;9021;50.882;4.326;2022-09-27T04:59:19;11.50;99.90
17795;DHT22;9021;50.882;4.326;2022-09-27T05:01:45;11.40;99.90
17795;DHT22;9021;50.882;4.326;2022-09-27T05:04:11;11.30;99.90
17795;DHT22;9021;50.882;4.326;2022-09-27T05:06:37;11.40;99.90
17795;DHT22;9021;50.882;4.326;2022-09-27T05:09:02;11.50;99.90
17795;DHT22;9021;50.882;4.326;2022-09-27T05:11:28;11.40;99.90
17795;DHT22;9021;50.882;4.326;2022-09-27T05:13:54;11.40;99.90
17795;DHT22;9021;50.882;4.326;2022-09-27T05:16:20;11.40;99.90
17795;DHT22;9021;50.882;4.326;2022-09-27T05:18:45;11.30;99.90
17795;DHT22;9021;50.882;4.326;2022-09-27T05:21:11;11.30;99.90
17795;DHT22;9021;50.882;4.326;2022-09-27T05:23:37;11.30;99.90
17795;DHT22;9021;50.882;4.326;2022-09-27T05:26:06;11.30;99.90
17795;DHT22;9021;50.882;4.326;2022-09-27T05:28:32;11.30;99.90
17795;DHT22;9021;50.882;4.326;2022-09-27T05:31:02;11.30;99.90
17795;DHT22;9021;50.882;4.326;2022-09-27T05:33:28;11.30;99.90
17795;DHT22;9021;50.882;4.326;2022-09-27T05:35:55;11.30;99.90
17795;DHT22;9021;50.882;4.326;2022-09-27T05:38:21;11.30;99.90
17795;DHT22;9021;50.882;4.326;2022-09-27T05:40:47;11.20;99.90
17795;DHT22;9021;50.882;4.326;2022-09-27T05:43:15;11.10;99.90
17795;DHT22;9021;50.882;4.326;2022-09-27T05:45:41;11.10;99.90
17795;DHT22;9021;50.882;4.326;2022-09-27T05:48:08;11.10;99.90
17795;DHT22;9021;50.882;4.326;2022-09-27T05:50:34;11.00;99.90
17795;DHT22;9021;50.882;4.326;2022-09-27T05:53:00;11.00;99.90
17795;DHT22;9021;50.882;4.326;2022-09-27T05:55:26;11.00;99.90
17795;DHT22;9021;50.882;4.326;2022-09-27T05:58:00;11.10;99.90
17795;DHT22;9021;50.882;4.326;2022-09-27T06:00:27;11.00;99.90
17795;DHT22;9021;50.882;4.326;2022-09-27T06:03:00;11.10;99.90
17795;DHT22;9021;50.882;4.326;2022-09-27T06:05:28;11.00;99.90
17795;DHT22;9021;50.882;4.326;2022-09-27T06:07:59;11.00;99.90
17795;DHT22;9021;50.882;4.326;2022-09-27T06:10:25;11.00;99.90
17795;DHT22;9021;50.882;4.326;2022-09-27T06:12:51;11.10;99.90
17795;DHT22;9021;50.882;4.326;2022-09-27T06:15:16;11.10;99.90
17795;DHT22;9021;50.882;4.326;2022-09-27T06:17:42;11.20;99.90
17795;DHT22;9021;50.882;4.326;2022-09-27T06:20:08;11.20;99.90
17795;DHT22;9021;50.882;4.326;2022-09-27T06:22:34;11.30;99.90
17795;DHT22;9021;50.882;4.326;2022-09-27T06:25:01;11.30;99.90
17795;DHT22;9021;50.882;4.326;2022-09-27T06:27:29;11.40;99.90
17795;DHT22;9021;50.882;4.326;2022-09-27T06:29:54;11.40;99.90
17795;DHT22;9021;50.882;4.326;2022-09-27T06:32:20;11.30;99.90
17795;DHT22;9021;50.882;4.326;2022-09-27T06:34:46;11.20;99.90
17795;DHT22;9021;50.882;4.326;2022-09-27T06:37:11;11.00;99.90
17795;DHT22;9021;50.882;4.326;2022-09-27T06:39:37;11.10;99.90
17795;DHT22;9021;50.882;4.326;2022-09-27T06:42:03;11.20;99.90
17795;DHT22;9021;50.882;4.326;2022-09-27T06:44:29;11.30;99.90
17795;DHT22;9021;50.882;4.326;2022-09-27T06:46:54;11.30;99.90
17795;DHT22;9021;50.882;4.326;2022-09-27T06:49:23;11.50;99.90
17795;DHT22;9021;50.882;4.326;2022-09-27T06:51:50;11.70;99.90
17795;DHT22;9021;50.882;4.326;2022-09-27T06:54:17;11.70;99.90
17795;DHT22;9021;50.882;4.326;2022-09-27T06:56:45;11.60;99.90
17795;DHT22;9021;50.882;4.326;2022-09-27T06:59:11;11.40;99.90
17795;DHT22;9021;50.882;4.326;2022-09-27T07:01:55;11.40;99.90
17795;DHT22;9021;50.882;4.326;2022-09-27T07:04:21;11.50;99.90
17795;DHT22;9021;50.882;4.326;2022-09-27T07:06:46;11.60;99.90
17795;DHT22;9021;50.882;4.326;2022-09-27T07:09:12;11.70;99.90
17795;DHT22;9021;50.882;4.326;2022-09-27T07:11:39;11.70;99.90
17795;DHT22;9021;50.882;4.326;2022-09-27T07:14:04;11.70;99.90
17795;DHT22;9021;50.882;4.326;2022-09-27T07:16:31;11.80;99.90
17795;DHT22;9021;50.882;4.326;2022-09-27T07:18:59;11.90;99.90
17795;DHT22;9021;50.882;4.326;2022-09-27T07:21:25;12.10;99.90
17795;DHT22;9021;50.882;4.326;2022-09-27T07:23:51;12.10;99.90
17795;DHT22;9021;50.882;4.326;2022-09-27T07:26:16;12.30;99.90
17795;DHT22;9021;50.882;4.326;2022-09-27T07:28:42;12.30;99.90
17795;DHT22;9021;50.882;4.326;2022-09-27T07:31:10;12.30;99.90
17795;DHT22;9021;50.882;4.326;2022-09-27T07:33:36;12.30;99.90
17795;DHT22;9021;50.882;4.326;2022-09-27T07:36:09;12.40;99.90
17795;DHT22;9021;50.882;4.326;2022-09-27T07:38:36;12.50;99.90
17795;DHT22;9021;50.882;4.326;2022-09-27T07:41:08;12.30;99.90
17795;DHT22;9021;50.882;4.326;2022-09-27T07:43:35;12.20;99.90
17795;DHT22;9021;50.882;4.326;2022-09-27T07:46:00;12.10;99.90
17795;DHT22;9021;50.882;4.326;2022-09-27T07:48:26;12.20;99.90
17795;DHT22;9021;50.882;4.326;2022-09-27T07:50:52;12.40;99.90
17795;DHT22;9021;50.882;4.326;2022-09-27T07:53:18;12.40;99.90
17795;DHT22;9021;50.882;4.326;2022-09-27T07:55:49;12.40;99.90
17795;DHT22;9021;50.882;4.326;2022-09-27T07:58:17;12.40;99.90
17795;DHT22;9021;50.882;4.326;2022-09-27T08:00:42;12.30;99.90
17795;DHT22;9021;50.882;4.326;2022-09-27T08:03:13;12.30;99.90
17795;DHT22;9021;50.882;4.326;2022-09-27T08:05:45;12.30;99.90
17795;DHT22;9021;50.882;4.326;2022-09-27T08:08:12;12.20;99.90
17795;DHT22;9021;50.882;4.326;2022-09-27T08:10:38;12.20;99.90
17795;DHT22;9021;50.882;4.326;2022-09-27T08:13:09;12.10;99.90
17795;DHT22;9021;50.882;4.326;2022-09-27T08:15:35;12.10;99.90
17795;DHT22;9021;50.882;4.326;2022-09-27T08:18:02;12.00;99.90
17795;DHT22;9021;50.882;4.326;2022-09-27T08:20:28;12.00;99.90
17795;DHT22;9021;50.882;4.326;2022-09-27T08:22:54;12.00;99.90
17795;DHT22;9021;50.882;4.326;2022-09-27T08:25:20;12.00;99.90
17795;DHT22;9021;50.882;4.326;2022-09-27T08:28:02;12.00;99.90
17795;DHT22;9021;50.882;4.326;2022-09-27T08:30:29;12.00;99.90
17795;DHT22;9021;50.882;4.326;2022-09-27T08:32:58;11.90;99.90
17795;DHT22;9021;50.882;4.326;2022-09-27T08:35:24;11.90;99.90
17795;DHT22;9021;50.882;4.326;2022-09-27T08:37:57;11.90;99.90
17795;DHT22;9021;50.882;4.326;2022-09-27T08:43:19;12.10;99.90
17795;DHT22;9021;50.882;4.326;2022-09-27T08:48:19;12.20;99.90
17795;DHT22;9021;50.882;4.326;2022-09-27T08:50:45;12.20;99.90
17795;DHT22;9021;50.882;4.326;2022-09-27T08:53:32;12.20;99.90
17795;DHT22;9021;50.882;4.326;2022-09-27T08:56:01;12.20;99.90
17795;DHT22;9021;50.882;4.326;2022-09-27T08:58:34;12.20;99.90
17795;DHT22;9021;50.882;4.326;2022-09-27T09:01:05;12.20;99.90
17795;DHT22;9021;50.882;4.326;2022-09-27T09:03:38;12.20;99.90
17795;DHT22;9021;50.882;4.326;2022-09-27T09:06:19;12.20;99.90
17795;DHT22;9021;50.882;4.326;2022-09-27T09:11:59;12.10;99.90
17795;DHT22;9021;50.882;4.326;2022-09-27T09:24:50;11.80;99.90
17795;DHT22;9021;50.882;4.326;2022-09-27T09:27:28;11.70;99.90
17795;DHT22;9021;50.882;4.326;2022-09-27T09:30:13;11.60;99.90
17795;DHT22;9021;50.882;4.326;2022-09-27T09:33:35;11.70;99.90
17795;DHT22;9021;50.882;4.326;2022-09-27T09:35:42;12.00;99.90
17795;DHT22;9021;50.882;4.326;2022-09-27T09:38:37;12.10;99.90
17795;DHT22;9021;50.882;4.326;2022-09-27T09:41:15;12.30;99.90
17795;DHT22;9021;50.882;4.326;2022-09-27T09:43:48;12.50;99.90
17795;DHT22;9021;50.882;4.326;2022-09-27T09:46:33;12.60;99.90
17795;DHT22;9021;50.882;4.326;2022-09-27T09:49:08;12.80;99.90
17795;DHT22;9021;50.882;4.326;2022-09-27T09:51:42;12.90;99.90
17795;DHT22;9021;50.882;4.326;2022-09-27T09:57:17;13.20;99.90
17795;DHT22;9021;50.882;4.326;2022-09-27T09:59:48;13.50;99.90
17795;DHT22;9021;50.882;4.326;2022-09-27T10:04:48;13.90;99.90
17795;DHT22;9021;50.882;4.326;2022-09-27T10:07:17;14.20;99.90
17795;DHT22;9021;50.882;4.326;2022-09-27T10:09:44;14.70;99.90
17795;DHT22;9021;50.882;4.326;2022-09-27T10:12:10;15.20;99.90
17795;DHT22;9021;50.882;4.326;2022-09-27T10:14:37;15.30;99.90
17795;DHT22;9021;50.882;4.326;2022-09-27T10:17:09;15.50;99.90
17795;DHT22;9021;50.882;4.326;2022-09-27T10:19:37;15.70;99.90
17795;DHT22;9021;50.882;4.326;2022-09-27T10:22:15;15.70;99.90
17795;DHT22;9021;50.882;4.326;2022-09-27T10:25:03;15.50;99.90
17795;DHT22;9021;50.882;4.326;2022-09-27T10:27:56;15.50;99.90
17795;DHT22;9021;50.882;4.326;2022-09-27T10:30:26;15.50;99.90
17795;DHT22;9021;50.882;4.326;2022-09-27T10:32:55;15.40;99.90
17795;DHT22;9021;50.882;4.326;2022-09-27T10:40:41;15.30;99.90
17795;DHT22;9021;50.882;4.326;2022-09-27T10:43:29;15.40;99.90
17795;DHT22;9021;50.882;4.326;2022-09-27T10:46:23;15.50;99.90
17795;DHT22;9021;50.882;4.326;2022-09-27T10:49:09;15.50;99.90
17795;DHT22;9021;50.882;4.326;2022-09-27T10:51:37;15.40;99.90
17795;DHT22;9021;50.882;4.326;2022-09-27T10:54:03;15.10;99.90
17795;DHT22;9021;50.882;4.326;2022-09-27T10:56:33;15.30;99.90
17795;DHT22;9021;50.882;4.326;2022-09-27T10:59:00;15.60;99.90
17795;DHT22;9021;50.882;4.326;2022-09-27T11:01:40;16.00;99.90
17795;DHT22;9021;50.882;4.326;2022-09-27T11:04:20;16.50;99.90
17795;DHT22;9021;50.882;4.326;2022-09-27T11:06:48;16.70;99.90
17795;DHT22;9021;50.882;4.326;2022-09-27T11:09:18;16.40;99.90
17795;DHT22;9021;50.882;4.326;2022-09-27T11:11:44;15.80;99.90
17795;DHT22;9021;50.882;4.326;2022-09-27T11:19:40;15.30;99.90
17795;DHT22;9021;50.882;4.326;2022-09-27T11:28:35;15.00;99.90
17795;DHT22;9021;50.882;4.326;2022-09-27T11:31:01;15.00;99.90
17795;DHT22;9021;50.882;4.326;2022-09-27T11:39:28;14.90;99.90
17795;DHT22;9021;50.882;4.326;2022-09-27T11:48:14;15.20;99.90
17795;DHT22;9021;50.882;4.326;2022-09-27T11:50:59;15.60;99.90
17795;DHT22;9021;50.882;4.326;2022-09-27T12:09:42;15.20;99.90
17795;DHT22;9021;50.882;4.326;2022-09-27T12:14:51;15.90;99.90
17795;DHT22;9021;50.882;4.326;2022-09-27T12:17:23;16.70;99.90
17795;DHT22;9021;50.882;4.326;2022-09-27T12:19:53;17.90;99.60
17795;DHT22;9021;50.882;4.326;2022-09-27T12:22:33;20.30;97.70
17795;DHT22;9021;50.882;4.326;2022-09-27T12:25:00;22.40;93.80
17795;DHT22;9021;50.882;4.326;2022-09-27T12:28:01;23.30;92.10
17795;DHT22;9021;50.882;4.326;2022-09-27T12:30:30;24.60;89.90
17795;DHT22;9021;50.882;4.326;2022-09-27T12:33:20;26.10;86.00
17795;DHT22;9021;50.882;4.326;2022-09-27T12:35:52;26.40;80.10
17795;DHT22;9021;50.882;4.326;2022-09-27T12:40:58;25.90;78.90
17795;DHT22;9021;50.882;4.326;2022-09-27T12:43:27;25.90;77.80
17795;DHT22;9021;50.882;4.326;2022-09-27T13:13:02;18.10;96.10
17795;DHT22;9021;50.882;4.326;2022-09-27T13:15:34;17.90;96.20
17795;DHT22;9021;50.882;4.326;2022-09-27T13:18:03;17.80;95.30
17795;DHT22;9021;50.882;4.326;2022-09-27T13:30:57;19.70;94.10
17795;DHT22;9021;50.882;4.326;2022-09-27T13:41:19;18.50;96.10
17795;DHT22;9021;50.882;4.326;2022-09-27T13:44:01;18.30;94.50
17795;DHT22;9021;50.882;4.326;2022-09-27T13:46:31;18.50;95.00
17795;DHT22;9021;50.882;4.326;2022-09-27T13:49:18;18.70;96.00
17795;DHT22;9021;50.882;4.326;2022-09-27T13:51:49;18.90;93.80
17795;DHT22;9021;50.882;4.326;2022-09-27T13:57:04;18.60;94.90
17795;DHT22;9021;50.882;4.326;2022-09-27T14:00:04;18.50;94.80
17795;DHT22;9021;50.882;4.326;2022-09-27T14:02:41;18.10;94.50
17795;DHT22;9021;50.882;4.326;2022-09-27T14:05:12;18.30;96.00
17795;DHT22;9021;50.882;4.326;2022-09-27T14:07:43;18.10;95.20
17795;DHT22;9021;50.882;4.326;2022-09-27T14:10:13;18.30;95.40
17795;DHT22;9021;50.882;4.326;2022-09-27T14:12:40;18.60;96.20
17795;DHT22;9021;50.882;4.326;2022-09-27T14:15:17;18.80;95.40
17795;DHT22;9021;50.882;4.326;2022-09-27T14:17:44;18.80;94.90
17795;DHT22;9021;50.882;4.326;2022-09-27T14:20:35;18.60;94.30
17795;DHT22;9021;50.882;4.326;2022-09-27T14:23:02;18.50;95.70
17795;DHT22;9021;50.882;4.326;2022-09-27T14:25:28;18.30;94.90
17795;DHT22;9021;50.882;4.326;2022-09-27T14:27:54;18.40;94.60
17795;DHT22;9021;50.882;4.326;2022-09-27T14:30:22;18.40;95.80
17795;DHT22;9021;50.882;4.326;2022-09-27T14:32:51;18.30;95.40
17795;DHT22;9021;50.882;4.326;2022-09-27T14:35:22;17.90;94.90
17795;DHT22;9021;50.882;4.326;2022-09-27T14:39:25;17.70;95.80
17795;DHT22;9021;50.882;4.326;2022-09-27T14:41:55;17.60;96.50
17795;DHT22;9021;50.882;4.326;2022-09-27T14:44:21;17.60;97.10
17795;DHT22;9021;50.882;4.326;2022-09-27T14:47:09;17.20;97.40
17795;DHT22;9021;50.882;4.326;2022-09-27T14:49:45;17.10;97.80
17795;DHT22;9021;50.882;4.326;2022-09-27T14:52:21;17.00;98.40
17795;DHT22;9021;50.882;4.326;2022-09-27T14:57:22;16.00;98.50
17795;DHT22;9021;50.882;4.326;2022-09-27T14:59:48;15.80;99.90
17795;DHT22;9021;50.882;4.326;2022-09-27T15:02:17;15.70;99.90
17795;DHT22;9021;50.882;4.326;2022-09-27T15:04:45;15.60;99.90
17795;DHT22;9021;50.882;4.326;2022-09-27T15:07:12;15.30;99.90
17795;DHT22;9021;50.882;4.326;2022-09-27T15:09:41;15.20;99.90
17795;DHT22;9021;50.882;4.326;2022-09-27T15:12:09;15.00;99.90
17795;DHT22;9021;50.882;4.326;2022-09-27T15:14:38;14.90;99.90
17795;DHT22;9021;50.882;4.326;2022-09-27T15:17:17;14.90;99.90
17795;DHT22;9021;50.882;4.326;2022-09-27T15:20:03;14.60;99.90
17795;DHT22;9021;50.882;4.326;2022-09-27T15:22:43;14.50;99.90
17795;DHT22;9021;50.882;4.326;2022-09-27T15:25:16;14.30;99.90
17795;DHT22;9021;50.882;4.326;2022-09-27T15:27:51;14.50;99.90
17795;DHT22;9021;50.882;4.326;2022-09-27T15:30:20;14.60;99.90
17795;DHT22;9021;50.882;4.326;2022-09-27T15:32:52;14.80;99.90
17795;DHT22;9021;50.882;4.326;2022-09-27T15:35:23;15.00;99.90
17795;DHT22;9021;50.882;4.326;2022-09-27T15:37:49;15.00;99.90
17795;DHT22;9021;50.882;4.326;2022-09-27T15:42:57;15.10;99.90
17795;DHT22;9021;50.882;4.326;2022-09-27T15:45:32;15.20;99.90
17795;DHT22;9021;50.882;4.326;2022-09-27T15:48:18;15.40;99.90
17795;DHT22;9021;50.882;4.326;2022-09-27T15:50:45;15.30;99.90
17795;DHT22;9021;50.882;4.326;2022-09-27T15:56:04;15.20;99.90
17795;DHT22;9021;50.882;4.326;2022-09-27T15:58:34;15.30;99.90
17795;DHT22;9021;50.882;4.326;2022-09-27T16:01:02;15.30;99.90
17795;DHT22;9021;50.882;4.326;2022-09-27T16:03:28;15.40;99.90
17795;DHT22;9021;50.882;4.326;2022-09-27T16:06:00;15.40;99.90
17795;DHT22;9021;50.882;4.326;2022-09-27T16:08:26;15.40;99.90
17795;DHT22;9021;50.882;4.326;2022-09-27T16:10:54;15.20;99.90
17795;DHT22;9021;50.882;4.326;2022-09-27T16:13:21;15.20;99.90
17795;DHT22;9021;50.882;4.326;2022-09-27T16:15:47;15.20;99.90
17795;DHT22;9021;50.882;4.326;2022-09-27T16:18:13;15.20;99.90
17795;DHT22;9021;50.882;4.326;2022-09-27T16:20:39;15.20;99.90
17795;DHT22;9021;50.882;4.326;2022-09-27T16:23:05;15.20;99.90
17795;DHT22;9021;50.882;4.326;2022-09-27T16:25:31;15.10;99.90
17795;DHT22;9021;50.882;4.326;2022-09-27T16:27:58;15.20;99.90
17795;DHT22;9021;50.882;4.326;2022-09-27T16:30:24;15.20;99.90
17795;DHT22;9021;50.882;4.326;2022-09-27T16:32:51;15.10;99.90
17795;DHT22;9021;50.882;4.326;2022-09-27T16:35:18;15.10;99.90
17795;DHT22;9021;50.882;4.326;2022-09-27T16:37:44;15.00;99.90
17795;DHT22;9021;50.882;4.326;2022-09-27T16:40:11;14.90;99.90
17795;DHT22;9021;50.882;4.326;2022-09-27T16:42:38;14.80;99.90
17795;DHT22;9021;50.882;4.326;2022-09-27T16:45:04;14.70;99.90
17795;DHT22;9021;50.882;4.326;2022-09-27T16:47:30;14.70;99.90
17795;DHT22;9021;50.882;4.326;2022-09-27T16:49:56;14.70;99.90
17795;DHT22;9021;50.882;4.326;2022-09-27T16:52:41;14.70;99.90
17795;DHT22;9021;50.882;4.326;2022-09-27T16:55:08;14.80;99.90
17795;DHT22;9021;50.882;4.326;2022-09-27T16:57:34;14.60;99.90
17795;DHT22;9021;50.882;4.326;2022-09-27T17:00:00;14.70;99.90
17795;DHT22;9021;50.882;4.326;2022-09-27T17:02:26;14.60;99.90
17795;DHT22;9021;50.882;4.326;2022-09-27T17:04:52;14.70;99.90
17795;DHT22;9021;50.882;4.326;2022-09-27T17:07:19;14.60;99.90
17795;DHT22;9021;50.882;4.326;2022-09-27T17:09:45;14.60;99.90
17795;DHT22;9021;50.882;4.326;2022-09-27T17:12:12;14.60;99.90
17795;DHT22;9021;50.882;4.326;2022-09-27T17:14:38;14.60;99.90
17795;DHT22;9021;50.882;4.326;2022-09-27T17:17:04;14.50;99.90
17795;DHT22;9021;50.882;4.326;2022-09-27T17:19:30;14.30;99.90
17795;DHT22;9021;50.882;4.326;2022-09-27T17:21:57;14.30;99.90
17795;DHT22;9021;50.882;4.326;2022-09-27T17:24:23;14.20;99.90
17795;DHT22;9021;50.882;4.326;2022-09-27T17:26:49;14.30;99.90
17795;DHT22;9021;50.882;4.326;2022-09-27T17:29:14;14.20;99.90
17795;DHT22;9021;50.882;4.326;2022-09-27T17:31:41;14.20;99.90
17795;DHT22;9021;50.882;4.326;2022-09-27T17:34:08;14.30;99.90
17795;DHT22;9021;50.882;4.326;2022-09-27T17:36:38;14.40;99.90
17795;DHT22;9021;50.882;4.326;2022-09-27T17:39:07;14.30;99.90
17795;DHT22;9021;50.882;4.326;2022-09-27T17:41:34;14.30;99.90
17795;DHT22;9021;50.882;4.326;2022-09-27T17:44:01;14.10;99.90
17795;DHT22;9021;50.882;4.326;2022-09-27T17:46:35;14.10;99.90
17795;DHT22;9021;50.882;4.326;2022-09-27T17:49:01;14.00;99.90
17795;DHT22;9021;50.882;4.326;2022-09-27T17:51:50;14.10;99.90
17795;DHT22;9021;50.882;4.326;2022-09-27T17:54:17;14.10;99.90
17795;DHT22;9021;50.882;4.326;2022-09-27T17:56:44;14.10;99.90
17795;DHT22;9021;50.882;4.326;2022-09-27T17:59:12;14.10;99.90
17795;DHT22;9021;50.882;4.326;2022-09-27T18:01:40;14.00;99.90
17795;DHT22;9021;50.882;4.326;2022-09-27T18:04:08;14.00;99.90
17795;DHT22;9021;50.882;4.326;2022-09-27T18:06:37;13.90;99.90
17795;DHT22;9021;50.882;4.326;2022-09-27T18:09:05;14.10;99.90
17795;DHT22;9021;50.882;4.326;2022-09-27T18:11:33;14.00;99.90
17795;DHT22;9021;50.882;4.326;2022-09-27T18:13:58;13.80;99.90
17795;DHT22;9021;50.882;4.326;2022-09-27T18:16:26;13.60;99.90
17795;DHT22;9021;50.882;4.326;2022-09-27T18:18:55;13.50;99.90
17795;DHT22;9021;50.882;4.326;2022-09-27T18:21:20;13.40;99.90
17795;DHT22;9021;50.882;4.326;2022-09-27T18:23:50;13.20;99.90
17795;DHT22;9021;50.882;4.326;2022-09-27T18:26:17;13.20;99.90
17795;DHT22;9021;50.882;4.326;2022-09-27T18:28:44;13.10;99.90
17795;DHT22;9021;50.882;4.326;2022-09-27T18:31:15;13.00;99.90
17795;DHT22;9021;50.882;4.326;2022-09-27T18:33:42;13.00;99.90
17795;DHT22;9021;50.882;4.326;2022-09-27T18:36:12;12.80;99.90
17795;DHT22;9021;50.882;4.326;2022-09-27T18:38:39;12.60;99.90
17795;DHT22;9021;50.882;4.326;2022-09-27T18:41:10;12.70;99.90
17795;DHT22;9021;50.882;4.326;2022-09-27T18:43:36;12.80;99.90
17795;DHT22;9021;50.882;4.326;2022-09-27T18:46:03;12.80;99.90
17795;DHT22;9021;50.882;4.326;2022-09-27T18:48:30;12.80;99.90
17795;DHT22;9021;50.882;4.326;2022-09-27T18:50:57;12.80;99.90
17795;DHT22;9021;50.882;4.326;2022-09-27T18:53:23;12.90;99.90
17795;DHT22;9021;50.882;4.326;2022-09-27T18:55:48;12.80;99.90
17795;DHT22;9021;50.882;4.326;2022-09-27T18:58:14;12.80;99.90